sensor_id;sensor_type;location;lat;lon;timestamp;P1;durP1;ratioP1;P2;durP2;ratioP2
16689;SDS011;8458;52.220;9.884;2022-09-06T00:00:50;6.07;;;5.67;;
16689;SDS011;8458;52.220;9.884;2022-09-06T00:03:17;6.07;;;5.63;;
16689;SDS011;8458;52.220;9.884;2022-09-06T00:05:45;5.70;;;5.40;;
16689;SDS011;8458;52.220;9.884;2022-09-06T00:08:11;5.50;;;5.20;;
16689;SDS011;8458;52.220;9.884;2022-09-06T00:10:38;5.87;;;5.57;;
16689;SDS011;8458;52.220;9.884;2022-09-06T00:13:06;5.37;;;5.00;;
16689;SDS011;8458;52.220;9.884;2022-09-06T00:15:35;5.93;;;5.47;;
16689;SDS011;8458;52.220;9.884;2022-09-06T00:18:03;6.07;;;5.70;;
16689;SDS011;8458;52.220;9.884;2022-09-06T00:20:31;6.13;;;5.83;;
16689;SDS011;8458;52.220;9.884;2022-09-06T00:23:00;6.40;;;6.10;;
16689;SDS011;8458;52.220;9.884;2022-09-06T00:25:30;5.93;;;5.63;;
16689;SDS011;8458;52.220;9.884;2022-09-06T00:27:57;6.27;;;5.77;;
16689;SDS011;8458;52.220;9.884;2022-09-06T00:30:26;6.10;;;5.60;;
16689;SDS011;8458;52.220;9.884;2022-09-06T00:32:53;6.10;;;5.70;;
16689;SDS011;8458;52.220;9.884;2022-09-06T00:35:20;5.90;;;5.40;;
16689;SDS011;8458;52.220;9.884;2022-09-06T00:37:48;6.23;;;5.93;;
16689;SDS011;8458;52.220;9.884;2022-09-06T00:40:16;6.03;;;5.60;;
16689;SDS011;8458;52.220;9.884;2022-09-06T00:42:43;5.73;;;5.40;;
16689;SDS011;8458;52.220;9.884;2022-09-06T00:45:09;6.10;;;5.70;;
16689;SDS011;8458;52.220;9.884;2022-09-06T00:47:37;6.17;;;5.87;;
16689;SDS011;8458;52.220;9.884;2022-09-06T00:50:06;6.13;;;5.70;;
16689;SDS011;8458;52.220;9.884;2022-09-06T00:52:34;6.13;;;5.73;;
16689;SDS011;8458;52.220;9.884;2022-09-06T00:55:03;5.70;;;5.40;;
16689;SDS011;8458;52.220;9.884;2022-09-06T00:57:31;6.00;;;5.53;;
16689;SDS011;8458;52.220;9.884;2022-09-06T00:59:59;5.80;;;5.40;;
16689;SDS011;8458;52.220;9.884;2022-09-06T01:02:27;5.50;;;5.20;;
16689;SDS011;8458;52.220;9.884;2022-09-06T01:04:53;5.83;;;5.43;;
16689;SDS011;8458;52.220;9.884;2022-09-06T01:07:24;5.50;;;5.20;;
16689;SDS011;8458;52.220;9.884;2022-09-06T01:10:02;5.23;;;4.93;;
16689;SDS011;8458;52.220;9.884;2022-09-06T01:12:43;5.40;;;5.10;;
16689;SDS011;8458;52.220;9.884;2022-09-06T01:15:18;5.67;;;5.37;;
16689;SDS011;8458;52.220;9.884;2022-09-06T01:17:57;5.87;;;5.47;;
16689;SDS011;8458;52.220;9.884;2022-09-06T01:20:47;5.20;;;5.00;;
16689;SDS011;8458;52.220;9.884;2022-09-06T01:23:44;5.40;;;5.10;;
16689;SDS011;8458;52.220;9.884;2022-09-06T01:26:37;5.30;;;5.00;;
16689;SDS011;8458;52.220;9.884;2022-09-06T01:29:22;5.20;;;4.90;;
16689;SDS011;8458;52.220;9.884;2022-09-06T01:31:55;5.70;;;5.30;;
16689;SDS011;8458;52.220;9.884;2022-09-06T01:34:30;5.20;;;4.90;;
16689;SDS011;8458;52.220;9.884;2022-09-06T01:37:03;6.00;;;5.70;;
16689;SDS011;8458;52.220;9.884;2022-09-06T01:39:35;5.83;;;5.50;;
16689;SDS011;8458;52.220;9.884;2022-09-06T01:42:04;5.27;;;4.97;;
16689;SDS011;8458;52.220;9.884;2022-09-06T01:44:36;5.40;;;5.13;;
16689;SDS011;8458;52.220;9.884;2022-09-06T01:47:08;5.43;;;5.03;;
16689;SDS011;8458;52.220;9.884;2022-09-06T01:49:47;5.23;;;4.93;;
16689;SDS011;8458;52.220;9.884;2022-09-06T01:52:25;5.80;;;5.50;;
16689;SDS011;8458;52.220;9.884;2022-09-06T01:55:04;5.90;;;5.60;;
16689;SDS011;8458;52.220;9.884;2022-09-06T01:57:52;5.63;;;5.33;;
16689;SDS011;8458;52.220;9.884;2022-09-06T02:00:29;6.13;;;5.73;;
16689;SDS011;8458;52.220;9.884;2022-09-06T02:03:05;5.80;;;5.50;;
16689;SDS011;8458;52.220;9.884;2022-09-06T02:05:40;5.97;;;5.57;;
16689;SDS011;8458;52.220;9.884;2022-09-06T02:08:13;5.83;;;5.50;;
16689;SDS011;8458;52.220;9.884;2022-09-06T02:10:44;5.50;;;5.20;;
16689;SDS011;8458;52.220;9.884;2022-09-06T02:13:14;5.77;;;5.47;;
16689;SDS011;8458;52.220;9.884;2022-09-06T02:15:46;5.93;;;5.63;;
16689;SDS011;8458;52.220;9.884;2022-09-06T02:18:17;5.23;;;4.93;;
16689;SDS011;8458;52.220;9.884;2022-09-06T02:20:53;5.87;;;5.47;;
16689;SDS011;8458;52.220;9.884;2022-09-06T02:23:24;5.30;;;5.10;;
16689;SDS011;8458;52.220;9.884;2022-09-06T02:25:54;5.50;;;5.27;;
16689;SDS011;8458;52.220;9.884;2022-09-06T02:28:24;5.40;;;5.10;;
16689;SDS011;8458;52.220;9.884;2022-09-06T02:30:54;5.27;;;5.07;;
16689;SDS011;8458;52.220;9.884;2022-09-06T02:33:25;5.87;;;5.53;;
16689;SDS011;8458;52.220;9.884;2022-09-06T02:35:55;5.57;;;5.27;;
16689;SDS011;8458;52.220;9.884;2022-09-06T02:38:27;5.67;;;5.17;;
16689;SDS011;8458;52.220;9.884;2022-09-06T02:40:54;5.30;;;5.00;;
16689;SDS011;8458;52.220;9.884;2022-09-06T02:43:21;5.30;;;5.00;;
16689;SDS011;8458;52.220;9.884;2022-09-06T02:45:48;5.77;;;5.47;;
16689;SDS011;8458;52.220;9.884;2022-09-06T02:48:16;5.07;;;4.77;;
16689;SDS011;8458;52.220;9.884;2022-09-06T02:50:42;5.23;;;4.93;;
16689;SDS011;8458;52.220;9.884;2022-09-06T02:53:09;5.27;;;4.80;;
16689;SDS011;8458;52.220;9.884;2022-09-06T02:55:38;5.30;;;4.90;;
16689;SDS011;8458;52.220;9.884;2022-09-06T02:58:05;4.93;;;4.63;;
16689;SDS011;8458;52.220;9.884;2022-09-06T03:00:33;4.80;;;4.40;;
16689;SDS011;8458;52.220;9.884;2022-09-06T03:03:00;4.67;;;4.37;;
16689;SDS011;8458;52.220;9.884;2022-09-06T03:05:28;4.83;;;4.53;;
16689;SDS011;8458;52.220;9.884;2022-09-06T03:07:55;4.90;;;4.60;;
16689;SDS011;8458;52.220;9.884;2022-09-06T03:10:22;4.90;;;4.60;;
16689;SDS011;8458;52.220;9.884;2022-09-06T03:12:50;4.93;;;4.63;;
16689;SDS011;8458;52.220;9.884;2022-09-06T03:15:17;4.80;;;4.50;;
16689;SDS011;8458;52.220;9.884;2022-09-06T03:17:44;4.83;;;4.60;;
16689;SDS011;8458;52.220;9.884;2022-09-06T03:20:10;4.80;;;4.50;;
16689;SDS011;8458;52.220;9.884;2022-09-06T03:22:39;4.83;;;4.53;;
16689;SDS011;8458;52.220;9.884;2022-09-06T03:25:06;5.00;;;4.70;;
16689;SDS011;8458;52.220;9.884;2022-09-06T03:27:34;4.67;;;4.40;;
16689;SDS011;8458;52.220;9.884;2022-09-06T03:30:01;5.03;;;4.73;;
16689;SDS011;8458;52.220;9.884;2022-09-06T03:32:28;6.50;;;4.47;;
16689;SDS011;8458;52.220;9.884;2022-09-06T03:34:55;4.83;;;4.43;;
16689;SDS011;8458;52.220;9.884;2022-09-06T03:37:22;4.60;;;4.30;;
16689;SDS011;8458;52.220;9.884;2022-09-06T03:39:50;4.30;;;4.00;;
16689;SDS011;8458;52.220;9.884;2022-09-06T03:42:16;4.27;;;3.97;;
16689;SDS011;8458;52.220;9.884;2022-09-06T03:44:43;4.40;;;4.10;;
16689;SDS011;8458;52.220;9.884;2022-09-06T03:47:09;5.10;;;4.20;;
16689;SDS011;8458;52.220;9.884;2022-09-06T03:49:36;4.47;;;4.17;;
16689;SDS011;8458;52.220;9.884;2022-09-06T03:52:03;4.93;;;4.03;;
16689;SDS011;8458;52.220;9.884;2022-09-06T03:54:30;4.40;;;4.20;;
16689;SDS011;8458;52.220;9.884;2022-09-06T03:56:58;4.13;;;3.83;;
16689;SDS011;8458;52.220;9.884;2022-09-06T03:59:24;4.30;;;4.00;;
16689;SDS011;8458;52.220;9.884;2022-09-06T04:01:51;4.17;;;3.80;;
16689;SDS011;8458;52.220;9.884;2022-09-06T04:04:17;3.83;;;3.63;;
16689;SDS011;8458;52.220;9.884;2022-09-06T04:06:44;4.70;;;4.40;;
16689;SDS011;8458;52.220;9.884;2022-09-06T04:09:11;4.13;;;3.93;;
16689;SDS011;8458;52.220;9.884;2022-09-06T04:11:37;4.50;;;4.30;;
16689;SDS011;8458;52.220;9.884;2022-09-06T04:14:05;4.13;;;3.87;;
16689;SDS011;8458;52.220;9.884;2022-09-06T04:16:31;3.80;;;3.60;;
16689;SDS011;8458;52.220;9.884;2022-09-06T04:18:58;6.87;;;4.90;;
16689;SDS011;8458;52.220;9.884;2022-09-06T04:21:26;6.20;;;5.03;;
16689;SDS011;8458;52.220;9.884;2022-09-06T04:23:52;4.83;;;4.37;;
16689;SDS011;8458;52.220;9.884;2022-09-06T04:26:19;5.10;;;4.33;;
16689;SDS011;8458;52.220;9.884;2022-09-06T04:28:45;7.63;;;4.60;;
16689;SDS011;8458;52.220;9.884;2022-09-06T04:31:13;12.77;;;5.17;;
16689;SDS011;8458;52.220;9.884;2022-09-06T04:33:40;7.40;;;4.83;;
16689;SDS011;8458;52.220;9.884;2022-09-06T04:36:07;6.57;;;4.33;;
16689;SDS011;8458;52.220;9.884;2022-09-06T04:38:35;4.70;;;4.40;;
16689;SDS011;8458;52.220;9.884;2022-09-06T04:41:03;4.50;;;4.20;;
16689;SDS011;8458;52.220;9.884;2022-09-06T04:43:30;4.23;;;3.93;;
16689;SDS011;8458;52.220;9.884;2022-09-06T04:46:01;4.60;;;4.30;;
16689;SDS011;8458;52.220;9.884;2022-09-06T04:48:30;5.03;;;4.53;;
16689;SDS011;8458;52.220;9.884;2022-09-06T04:50:56;4.47;;;4.07;;
16689;SDS011;8458;52.220;9.884;2022-09-06T04:53:23;4.20;;;3.90;;
16689;SDS011;8458;52.220;9.884;2022-09-06T04:55:49;3.97;;;3.70;;
16689;SDS011;8458;52.220;9.884;2022-09-06T04:58:16;3.87;;;3.57;;
16689;SDS011;8458;52.220;9.884;2022-09-06T05:00:43;4.90;;;4.60;;
16689;SDS011;8458;52.220;9.884;2022-09-06T05:03:09;4.50;;;4.10;;
16689;SDS011;8458;52.220;9.884;2022-09-06T05:05:37;3.90;;;3.70;;
16689;SDS011;8458;52.220;9.884;2022-09-06T05:08:04;4.43;;;4.17;;
16689;SDS011;8458;52.220;9.884;2022-09-06T05:10:30;4.53;;;3.90;;
16689;SDS011;8458;52.220;9.884;2022-09-06T05:12:57;4.73;;;4.30;;
16689;SDS011;8458;52.220;9.884;2022-09-06T05:15:23;4.83;;;4.53;;
16689;SDS011;8458;52.220;9.884;2022-09-06T05:17:50;4.50;;;4.20;;
16689;SDS011;8458;52.220;9.884;2022-09-06T05:20:16;3.97;;;3.77;;
16689;SDS011;8458;52.220;9.884;2022-09-06T05:22:50;3.63;;;3.43;;
16689;SDS011;8458;52.220;9.884;2022-09-06T05:25:17;4.47;;;4.10;;
16689;SDS011;8458;52.220;9.884;2022-09-06T05:27:44;3.97;;;3.77;;
16689;SDS011;8458;52.220;9.884;2022-09-06T05:30:11;4.40;;;4.10;;
16689;SDS011;8458;52.220;9.884;2022-09-06T05:32:38;4.33;;;4.03;;
16689;SDS011;8458;52.220;9.884;2022-09-06T05:35:05;4.17;;;3.90;;
16689;SDS011;8458;52.220;9.884;2022-09-06T05:37:31;3.57;;;3.37;;
16689;SDS011;8458;52.220;9.884;2022-09-06T05:40:00;4.23;;;3.93;;
16689;SDS011;8458;52.220;9.884;2022-09-06T05:42:26;4.03;;;3.83;;
16689;SDS011;8458;52.220;9.884;2022-09-06T05:44:53;3.90;;;3.70;;
16689;SDS011;8458;52.220;9.884;2022-09-06T05:47:19;3.97;;;3.77;;
16689;SDS011;8458;52.220;9.884;2022-09-06T05:49:46;5.00;;;4.67;;
16689;SDS011;8458;52.220;9.884;2022-09-06T05:52:12;4.53;;;4.23;;
16689;SDS011;8458;52.220;9.884;2022-09-06T05:54:39;4.90;;;4.60;;
16689;SDS011;8458;52.220;9.884;2022-09-06T05:57:07;5.07;;;4.87;;
16689;SDS011;8458;52.220;9.884;2022-09-06T05:59:33;4.80;;;4.40;;
16689;SDS011;8458;52.220;9.884;2022-09-06T06:02:00;4.40;;;4.10;;
16689;SDS011;8458;52.220;9.884;2022-09-06T06:04:26;4.67;;;4.27;;
16689;SDS011;8458;52.220;9.884;2022-09-06T06:06:53;4.87;;;4.50;;
16689;SDS011;8458;52.220;9.884;2022-09-06T06:09:20;4.70;;;4.37;;
16689;SDS011;8458;52.220;9.884;2022-09-06T06:11:46;4.90;;;4.50;;
16689;SDS011;8458;52.220;9.884;2022-09-06T06:14:14;4.90;;;4.50;;
16689;SDS011;8458;52.220;9.884;2022-09-06T06:16:40;4.57;;;4.27;;
16689;SDS011;8458;52.220;9.884;2022-09-06T06:19:07;4.67;;;4.37;;
16689;SDS011;8458;52.220;9.884;2022-09-06T06:21:33;4.50;;;4.23;;
16689;SDS011;8458;52.220;9.884;2022-09-06T06:24:02;5.23;;;4.83;;
16689;SDS011;8458;52.220;9.884;2022-09-06T06:26:30;4.13;;;3.90;;
16689;SDS011;8458;52.220;9.884;2022-09-06T06:28:58;4.73;;;4.40;;
16689;SDS011;8458;52.220;9.884;2022-09-06T06:31:27;4.37;;;4.07;;
16689;SDS011;8458;52.220;9.884;2022-09-06T06:33:54;4.27;;;3.97;;
16689;SDS011;8458;52.220;9.884;2022-09-06T06:36:21;4.73;;;4.33;;
16689;SDS011;8458;52.220;9.884;2022-09-06T06:38:49;4.93;;;4.53;;
16689;SDS011;8458;52.220;9.884;2022-09-06T06:41:17;4.33;;;4.13;;
16689;SDS011;8458;52.220;9.884;2022-09-06T06:43:49;4.10;;;3.90;;
16689;SDS011;8458;52.220;9.884;2022-09-06T06:46:17;4.23;;;3.90;;
16689;SDS011;8458;52.220;9.884;2022-09-06T06:48:45;4.67;;;4.30;;
16689;SDS011;8458;52.220;9.884;2022-09-06T06:51:12;4.63;;;4.23;;
16689;SDS011;8458;52.220;9.884;2022-09-06T06:53:40;4.70;;;4.30;;
16689;SDS011;8458;52.220;9.884;2022-09-06T06:56:14;8.13;;;4.60;;
16689;SDS011;8458;52.220;9.884;2022-09-06T06:58:42;6.70;;;4.77;;
16689;SDS011;8458;52.220;9.884;2022-09-06T07:01:08;5.83;;;4.57;;
16689;SDS011;8458;52.220;9.884;2022-09-06T07:03:35;13.97;;;5.40;;
16689;SDS011;8458;52.220;9.884;2022-09-06T07:06:03;4.40;;;4.00;;
16689;SDS011;8458;52.220;9.884;2022-09-06T07:08:31;4.80;;;4.30;;
16689;SDS011;8458;52.220;9.884;2022-09-06T07:10:57;3.70;;;3.40;;
16689;SDS011;8458;52.220;9.884;2022-09-06T07:13:24;4.60;;;4.30;;
16689;SDS011;8458;52.220;9.884;2022-09-06T07:15:51;5.00;;;4.50;;
16689;SDS011;8458;52.220;9.884;2022-09-06T07:18:17;4.53;;;4.13;;
16689;SDS011;8458;52.220;9.884;2022-09-06T07:20:44;4.50;;;4.20;;
16689;SDS011;8458;52.220;9.884;2022-09-06T07:23:11;4.83;;;4.43;;
16689;SDS011;8458;52.220;9.884;2022-09-06T07:25:38;4.40;;;4.10;;
16689;SDS011;8458;52.220;9.884;2022-09-06T07:28:05;4.20;;;3.90;;
16689;SDS011;8458;52.220;9.884;2022-09-06T07:30:32;4.27;;;4.03;;
16689;SDS011;8458;52.220;9.884;2022-09-06T07:33:00;4.00;;;3.70;;
16689;SDS011;8458;52.220;9.884;2022-09-06T07:35:26;4.40;;;4.10;;
16689;SDS011;8458;52.220;9.884;2022-09-06T07:37:53;4.10;;;3.90;;
16689;SDS011;8458;52.220;9.884;2022-09-06T07:40:22;4.20;;;3.90;;
16689;SDS011;8458;52.220;9.884;2022-09-06T07:42:49;4.40;;;4.10;;
16689;SDS011;8458;52.220;9.884;2022-09-06T07:45:16;5.10;;;4.70;;
16689;SDS011;8458;52.220;9.884;2022-09-06T07:47:42;6.17;;;5.60;;
16689;SDS011;8458;52.220;9.884;2022-09-06T07:50:09;4.90;;;4.50;;
16689;SDS011;8458;52.220;9.884;2022-09-06T07:52:36;4.83;;;4.40;;
16689;SDS011;8458;52.220;9.884;2022-09-06T07:55:03;5.07;;;4.67;;
16689;SDS011;8458;52.220;9.884;2022-09-06T07:57:31;4.67;;;4.27;;
16689;SDS011;8458;52.220;9.884;2022-09-06T07:59:58;4.20;;;3.90;;
16689;SDS011;8458;52.220;9.884;2022-09-06T08:02:25;4.77;;;4.47;;
16689;SDS011;8458;52.220;9.884;2022-09-06T08:04:51;5.30;;;4.37;;
16689;SDS011;8458;52.220;9.884;2022-09-06T08:07:20;4.67;;;4.27;;
16689;SDS011;8458;52.220;9.884;2022-09-06T08:09:46;4.47;;;4.13;;
16689;SDS011;8458;52.220;9.884;2022-09-06T08:12:13;4.77;;;4.37;;
16689;SDS011;8458;52.220;9.884;2022-09-06T08:14:40;4.63;;;4.33;;
16689;SDS011;8458;52.220;9.884;2022-09-06T08:17:07;4.70;;;4.30;;
16689;SDS011;8458;52.220;9.884;2022-09-06T08:19:33;4.93;;;4.53;;
16689;SDS011;8458;52.220;9.884;2022-09-06T08:22:01;4.57;;;4.20;;
16689;SDS011;8458;52.220;9.884;2022-09-06T08:24:27;4.90;;;4.60;;
16689;SDS011;8458;52.220;9.884;2022-09-06T08:26:54;4.90;;;4.33;;
16689;SDS011;8458;52.220;9.884;2022-09-06T08:29:21;4.57;;;4.27;;
16689;SDS011;8458;52.220;9.884;2022-09-06T08:31:48;5.37;;;4.50;;
16689;SDS011;8458;52.220;9.884;2022-09-06T08:34:15;4.53;;;4.13;;
16689;SDS011;8458;52.220;9.884;2022-09-06T08:36:41;6.40;;;4.30;;
16689;SDS011;8458;52.220;9.884;2022-09-06T08:39:09;4.50;;;4.20;;
16689;SDS011;8458;52.220;9.884;2022-09-06T08:41:39;4.30;;;4.00;;
16689;SDS011;8458;52.220;9.884;2022-09-06T08:44:13;4.33;;;4.03;;
16689;SDS011;8458;52.220;9.884;2022-09-06T08:46:44;5.27;;;4.77;;
16689;SDS011;8458;52.220;9.884;2022-09-06T08:49:18;4.27;;;3.97;;
16689;SDS011;8458;52.220;9.884;2022-09-06T08:51:50;4.33;;;3.93;;
16689;SDS011;8458;52.220;9.884;2022-09-06T08:54:36;4.07;;;3.77;;
16689;SDS011;8458;52.220;9.884;2022-09-06T08:57:08;4.17;;;3.70;;
16689;SDS011;8458;52.220;9.884;2022-09-06T08:59:40;4.00;;;3.70;;
16689;SDS011;8458;52.220;9.884;2022-09-06T09:02:12;3.93;;;3.63;;
16689;SDS011;8458;52.220;9.884;2022-09-06T09:04:43;3.80;;;3.40;;
16689;SDS011;8458;52.220;9.884;2022-09-06T09:10:04;3.90;;;3.70;;
16689;SDS011;8458;52.220;9.884;2022-09-06T09:12:36;3.77;;;3.53;;
16689;SDS011;8458;52.220;9.884;2022-09-06T09:15:09;3.70;;;3.50;;
16689;SDS011;8458;52.220;9.884;2022-09-06T09:17:39;3.67;;;3.37;;
16689;SDS011;8458;52.220;9.884;2022-09-06T09:20:07;3.83;;;3.63;;
16689;SDS011;8458;52.220;9.884;2022-09-06T09:22:34;3.80;;;3.47;;
16689;SDS011;8458;52.220;9.884;2022-09-06T09:25:01;4.47;;;4.13;;
16689;SDS011;8458;52.220;9.884;2022-09-06T09:27:29;4.63;;;4.30;;
16689;SDS011;8458;52.220;9.884;2022-09-06T09:29:58;5.43;;;4.20;;
16689;SDS011;8458;52.220;9.884;2022-09-06T09:32:30;7.40;;;4.10;;
16689;SDS011;8458;52.220;9.884;2022-09-06T09:35:19;4.30;;;4.00;;
16689;SDS011;8458;52.220;9.884;2022-09-06T09:37:55;3.90;;;3.60;;
16689;SDS011;8458;52.220;9.884;2022-09-06T09:40:31;4.83;;;4.33;;
16689;SDS011;8458;52.220;9.884;2022-09-06T09:43:09;4.20;;;3.90;;
16689;SDS011;8458;52.220;9.884;2022-09-06T09:45:40;4.07;;;3.80;;
16689;SDS011;8458;52.220;9.884;2022-09-06T09:48:15;4.07;;;3.73;;
16689;SDS011;8458;52.220;9.884;2022-09-06T09:50:47;4.60;;;4.07;;
16689;SDS011;8458;52.220;9.884;2022-09-06T09:53:15;4.43;;;4.03;;
16689;SDS011;8458;52.220;9.884;2022-09-06T09:55:43;4.17;;;3.77;;
16689;SDS011;8458;52.220;9.884;2022-09-06T09:58:16;4.33;;;3.93;;
16689;SDS011;8458;52.220;9.884;2022-09-06T10:00:46;4.23;;;3.93;;
16689;SDS011;8458;52.220;9.884;2022-09-06T10:03:13;3.87;;;3.60;;
16689;SDS011;8458;52.220;9.884;2022-09-06T10:05:41;6.10;;;3.57;;
16689;SDS011;8458;52.220;9.884;2022-09-06T10:08:21;3.60;;;3.40;;
16689;SDS011;8458;52.220;9.884;2022-09-06T10:10:50;4.50;;;4.20;;
16689;SDS011;8458;52.220;9.884;2022-09-06T10:13:17;4.50;;;4.20;;
16689;SDS011;8458;52.220;9.884;2022-09-06T10:15:45;4.30;;;4.00;;
16689;SDS011;8458;52.220;9.884;2022-09-06T10:18:14;4.70;;;4.40;;
16689;SDS011;8458;52.220;9.884;2022-09-06T10:20:44;4.43;;;4.10;;
16689;SDS011;8458;52.220;9.884;2022-09-06T10:23:15;4.27;;;3.97;;
16689;SDS011;8458;52.220;9.884;2022-09-06T10:25:52;4.03;;;3.83;;
16689;SDS011;8458;52.220;9.884;2022-09-06T10:28:28;4.27;;;3.93;;
16689;SDS011;8458;52.220;9.884;2022-09-06T10:34:01;4.20;;;3.80;;
16689;SDS011;8458;52.220;9.884;2022-09-06T10:36:35;3.50;;;3.20;;
16689;SDS011;8458;52.220;9.884;2022-09-06T10:39:06;3.60;;;3.30;;
16689;SDS011;8458;52.220;9.884;2022-09-06T10:41:56;3.83;;;3.53;;
16689;SDS011;8458;52.220;9.884;2022-09-06T10:44:37;4.03;;;3.73;;
16689;SDS011;8458;52.220;9.884;2022-09-06T10:47:17;4.00;;;3.70;;
16689;SDS011;8458;52.220;9.884;2022-09-06T10:49:45;3.53;;;3.33;;
16689;SDS011;8458;52.220;9.884;2022-09-06T10:52:16;4.10;;;3.70;;
16689;SDS011;8458;52.220;9.884;2022-09-06T10:54:49;3.67;;;3.47;;
16689;SDS011;8458;52.220;9.884;2022-09-06T10:57:18;3.43;;;3.20;;
16689;SDS011;8458;52.220;9.884;2022-09-06T10:59:49;4.27;;;3.77;;
16689;SDS011;8458;52.220;9.884;2022-09-06T11:02:25;3.77;;;3.47;;
16689;SDS011;8458;52.220;9.884;2022-09-06T11:05:01;4.07;;;3.47;;
16689;SDS011;8458;52.220;9.884;2022-09-06T11:07:32;3.33;;;3.13;;
16689;SDS011;8458;52.220;9.884;2022-09-06T11:10:05;3.87;;;3.57;;
16689;SDS011;8458;52.220;9.884;2022-09-06T11:12:39;3.60;;;3.30;;
16689;SDS011;8458;52.220;9.884;2022-09-06T11:15:10;3.60;;;3.30;;
16689;SDS011;8458;52.220;9.884;2022-09-06T11:17:41;3.93;;;3.63;;
16689;SDS011;8458;52.220;9.884;2022-09-06T11:20:13;3.57;;;3.37;;
16689;SDS011;8458;52.220;9.884;2022-09-06T11:28:32;3.60;;;3.30;;
16689;SDS011;8458;52.220;9.884;2022-09-06T11:31:04;3.30;;;3.10;;
16689;SDS011;8458;52.220;9.884;2022-09-06T11:33:34;3.60;;;3.40;;
16689;SDS011;8458;52.220;9.884;2022-09-06T11:36:17;3.70;;;3.40;;
16689;SDS011;8458;52.220;9.884;2022-09-06T11:38:53;3.13;;;2.83;;
16689;SDS011;8458;52.220;9.884;2022-09-06T11:41:25;3.80;;;3.10;;
16689;SDS011;8458;52.220;9.884;2022-09-06T11:43:55;3.90;;;3.60;;
16689;SDS011;8458;52.220;9.884;2022-09-06T11:49:32;3.83;;;3.57;;
16689;SDS011;8458;52.220;9.884;2022-09-06T11:52:01;3.80;;;3.50;;
16689;SDS011;8458;52.220;9.884;2022-09-06T11:54:48;3.67;;;3.37;;
16689;SDS011;8458;52.220;9.884;2022-09-06T11:57:20;4.90;;;3.37;;
16689;SDS011;8458;52.220;9.884;2022-09-06T11:59:52;3.30;;;2.90;;
16689;SDS011;8458;52.220;9.884;2022-09-06T12:02:29;3.33;;;3.13;;
16689;SDS011;8458;52.220;9.884;2022-09-06T12:05:09;3.00;;;2.80;;
16689;SDS011;8458;52.220;9.884;2022-09-06T12:10:44;3.30;;;2.73;;
16689;SDS011;8458;52.220;9.884;2022-09-06T12:13:33;3.20;;;3.00;;
16689;SDS011;8458;52.220;9.884;2022-09-06T12:16:04;3.67;;;3.37;;
16689;SDS011;8458;52.220;9.884;2022-09-06T12:21:31;3.17;;;2.87;;
16689;SDS011;8458;52.220;9.884;2022-09-06T12:27:10;2.50;;;2.30;;
16689;SDS011;8458;52.220;9.884;2022-09-06T12:29:47;3.27;;;2.93;;
16689;SDS011;8458;52.220;9.884;2022-09-06T12:32:20;3.22;;;2.92;;
16689;SDS011;8458;52.220;9.884;2022-09-06T12:34:56;3.65;;;3.10;;
16689;SDS011;8458;52.220;9.884;2022-09-06T12:37:31;3.47;;;3.17;;
16689;SDS011;8458;52.220;9.884;2022-09-06T12:39:59;2.90;;;2.70;;
16689;SDS011;8458;52.220;9.884;2022-09-06T12:42:25;2.95;;;2.72;;
16689;SDS011;8458;52.220;9.884;2022-09-06T12:44:54;3.33;;;3.05;;
16689;SDS011;8458;52.220;9.884;2022-09-06T12:47:22;2.75;;;2.55;;
16689;SDS011;8458;52.220;9.884;2022-09-06T12:50:05;3.05;;;2.72;;
16689;SDS011;8458;52.220;9.884;2022-09-06T12:52:32;4.10;;;2.92;;
16689;SDS011;8458;52.220;9.884;2022-09-06T12:54:59;2.95;;;2.75;;
16689;SDS011;8458;52.220;9.884;2022-09-06T12:57:25;2.92;;;2.75;;
16689;SDS011;8458;52.220;9.884;2022-09-06T12:59:54;2.72;;;2.55;;
16689;SDS011;8458;52.220;9.884;2022-09-06T13:02:23;3.25;;;2.90;;
16689;SDS011;8458;52.220;9.884;2022-09-06T13:04:58;3.20;;;3.00;;
16689;SDS011;8458;52.220;9.884;2022-09-06T13:07:29;3.05;;;2.85;;
16689;SDS011;8458;52.220;9.884;2022-09-06T13:09:59;2.72;;;2.53;;
16689;SDS011;8458;52.220;9.884;2022-09-06T13:12:30;2.58;;;2.38;;
16689;SDS011;8458;52.220;9.884;2022-09-06T13:15:01;6.80;;;2.75;;
16689;SDS011;8458;52.220;9.884;2022-09-06T13:17:32;2.58;;;2.38;;
16689;SDS011;8458;52.220;9.884;2022-09-06T13:20:07;2.70;;;2.50;;
16689;SDS011;8458;52.220;9.884;2022-09-06T13:22:38;2.92;;;2.72;;
16689;SDS011;8458;52.220;9.884;2022-09-06T13:25:12;3.53;;;2.78;;
16689;SDS011;8458;52.220;9.884;2022-09-06T13:27:41;5.00;;;2.83;;
16689;SDS011;8458;52.220;9.884;2022-09-06T13:33:06;2.75;;;2.50;;
16689;SDS011;8458;52.220;9.884;2022-09-06T13:35:44;3.47;;;2.70;;
16689;SDS011;8458;52.220;9.884;2022-09-06T13:38:21;3.33;;;2.42;;
16689;SDS011;8458;52.220;9.884;2022-09-06T13:40:56;3.38;;;2.90;;
16689;SDS011;8458;52.220;9.884;2022-09-06T13:43:23;2.80;;;2.60;;
16689;SDS011;8458;52.220;9.884;2022-09-06T13:46:02;2.80;;;2.60;;
16689;SDS011;8458;52.220;9.884;2022-09-06T13:48:30;3.17;;;2.88;;
16689;SDS011;8458;52.220;9.884;2022-09-06T13:50:56;2.95;;;2.75;;
16689;SDS011;8458;52.220;9.884;2022-09-06T13:53:23;7.28;;;2.83;;
16689;SDS011;8458;52.220;9.884;2022-09-06T13:55:50;2.35;;;2.10;;
16689;SDS011;8458;52.220;9.884;2022-09-06T13:58:17;2.90;;;2.70;;
16689;SDS011;8458;52.220;9.884;2022-09-06T14:00:44;2.80;;;2.60;;
16689;SDS011;8458;52.220;9.884;2022-09-06T14:03:13;5.60;;;2.58;;
16689;SDS011;8458;52.220;9.884;2022-09-06T14:05:46;11.23;;;2.60;;
16689;SDS011;8458;52.220;9.884;2022-09-06T14:08:13;3.22;;;2.88;;
16689;SDS011;8458;52.220;9.884;2022-09-06T14:10:39;3.08;;;2.80;;
16689;SDS011;8458;52.220;9.884;2022-09-06T14:13:06;2.95;;;2.63;;
16689;SDS011;8458;52.220;9.884;2022-09-06T14:15:33;3.20;;;2.65;;
16689;SDS011;8458;52.220;9.884;2022-09-06T14:18:00;2.90;;;2.70;;
16689;SDS011;8458;52.220;9.884;2022-09-06T14:20:28;2.97;;;2.78;;
16689;SDS011;8458;52.220;9.884;2022-09-06T14:22:54;2.92;;;2.20;;
16689;SDS011;8458;52.220;9.884;2022-09-06T14:25:21;3.22;;;2.70;;
16689;SDS011;8458;52.220;9.884;2022-09-06T14:27:47;2.97;;;2.78;;
16689;SDS011;8458;52.220;9.884;2022-09-06T14:30:14;3.58;;;2.85;;
16689;SDS011;8458;52.220;9.884;2022-09-06T14:32:40;2.70;;;2.50;;
16689;SDS011;8458;52.220;9.884;2022-09-06T14:35:07;3.35;;;2.67;;
16689;SDS011;8458;52.220;9.884;2022-09-06T14:37:35;3.30;;;2.45;;
16689;SDS011;8458;52.220;9.884;2022-09-06T14:42:54;2.83;;;2.63;;
16689;SDS011;8458;52.220;9.884;2022-09-06T14:45:22;2.85;;;2.70;;
16689;SDS011;8458;52.220;9.884;2022-09-06T14:47:49;2.70;;;2.50;;
16689;SDS011;8458;52.220;9.884;2022-09-06T14:50:16;2.95;;;2.83;;
16689;SDS011;8458;52.220;9.884;2022-09-06T14:52:44;2.63;;;2.42;;
16689;SDS011;8458;52.220;9.884;2022-09-06T14:55:11;3.67;;;2.80;;
16689;SDS011;8458;52.220;9.884;2022-09-06T14:57:37;2.80;;;2.60;;
16689;SDS011;8458;52.220;9.884;2022-09-06T15:00:04;3.42;;;2.50;;
16689;SDS011;8458;52.220;9.884;2022-09-06T15:02:33;3.10;;;2.80;;
16689;SDS011;8458;52.220;9.884;2022-09-06T15:04:59;3.20;;;2.90;;
16689;SDS011;8458;52.220;9.884;2022-09-06T15:07:26;3.85;;;2.97;;
16689;SDS011;8458;52.220;9.884;2022-09-06T15:09:54;3.08;;;2.75;;
16689;SDS011;8458;52.220;9.884;2022-09-06T15:12:21;2.90;;;2.70;;
16689;SDS011;8458;52.220;9.884;2022-09-06T15:14:48;2.88;;;2.67;;
16689;SDS011;8458;52.220;9.884;2022-09-06T15:17:15;2.55;;;2.40;;
16689;SDS011;8458;52.220;9.884;2022-09-06T15:19:41;3.05;;;2.85;;
16689;SDS011;8458;52.220;9.884;2022-09-06T15:22:08;2.97;;;2.80;;
16689;SDS011;8458;52.220;9.884;2022-09-06T15:24:34;3.03;;;2.83;;
16689;SDS011;8458;52.220;9.884;2022-09-06T15:27:03;3.40;;;3.10;;
16689;SDS011;8458;52.220;9.884;2022-09-06T15:29:29;2.92;;;2.63;;
16689;SDS011;8458;52.220;9.884;2022-09-06T15:31:56;3.25;;;2.70;;
16689;SDS011;8458;52.220;9.884;2022-09-06T15:34:23;2.85;;;2.65;;
16689;SDS011;8458;52.220;9.884;2022-09-06T15:36:51;2.97;;;2.78;;
16689;SDS011;8458;52.220;9.884;2022-09-06T15:39:18;4.28;;;2.90;;
16689;SDS011;8458;52.220;9.884;2022-09-06T15:41:45;3.10;;;2.90;;
16689;SDS011;8458;52.220;9.884;2022-09-06T15:44:13;3.38;;;3.05;;